Ely Airport Yelland Field
KELY : rendu visible

Aérodrome :











RETROUVEZ-NOUS SUR...

 
LOGIN :

S'inscrire | Disclaimer

   EN    FR    IT 

 









Légende :    VFR   VFR Marginal   IFR   IFR Intensif   IFR Très Intensif
Visi : 
Plafond : 
>= 8 km
>= 3000ft
5 à 8 km
1000 à 3000 ft
1500m à 5 km
500 à 1000 ft
800 à 1500m
200 à 500 ft
< 800m
< 200 ft
Symboles :   Orages  Brouillard  Fortes neiges  Fortes précipitations  Vent > 20 kt






- Altitude de l'aérodrome : 6259 ft


KELY - Ely Yelland Field

DERNIER METAR :
  • 190753Z AUTO 18010KT 10SM CLR M10/M12 A3045 RMK AO2 SLP340 T11001122 400721133 $

METARs EXPIRÉS :
  • 190653Z AUTO 18010KT 10SM CLR M09/M12 A3044 RMK AO2 SLP339 T10891122 $
  • 190553Z AUTO 17008KT 10SM CLR M09/M12 A3043 RMK AO2 SLP342 T10891117 10044 21089 51007 $

TAF KELY
Valide du 19 à 06h jusqu'au 20 à 06h UTC


190520Z 1906/2006 17010KT P6SM BKN200
FM192000 VRB06KT P6SM SCT250
FM200300 17012KT P6SM SCT150 BKN200



MET'MAP, la Météo Aéronautique d'un coup d'oeil ! - Copyright ORBIFLY Décembre 2007 - Disclaimer

ORBIFLY MET'MAP TEAM :

Programmation & Développement : Alexandra Zaïnal
Sur une idée originale de : Baudouin d'Aumeries
Assistance à la programmation : Marc-Olivier Méhu
Soutien technique & logistique : Manuel Goepfert

Contact : metmap@orbifly.com




SOURCES & CREDITS :

   NOAA       Earth
Advisory